Time;durP1;ratioP1;P1;durP2;ratioP2;P2;SDS_P1;SDS_P2;PMS_P1;PMS_P2;Temp;Humidity;BMP_temperature;BMP_pressure;BME280_temperature;BME280_humidity;BME280_pressure;Samples;Min_cycle;Max_cycle;Signal;HPM_P1;HPM_P2
2020/12/16 00:00:40;;;;;;;43.70;19.40;;;4.70;99.90;;;;;;20906863;28;20052;-78
2020/12/16 00:10:41;;;;;;;37.90;17.87;;;4.70;99.90;;;;;;20906165;28;20071;-81
2020/12/16 00:20:42;;;;;;;47.00;21.17;;;4.60;99.90;;;;;;20922013;28;20032;-79
2020/12/16 00:30:47;;;;;;;46.77;22.27;;;4.60;99.90;;;;;;20922639;28;20033;-79
2020/12/16 00:40:48;;;;;;;39.33;17.67;;;4.60;99.90;;;;;;20920942;28;20391;-79
2020/12/16 00:50:49;;;;;;;36.67;16.60;;;4.20;99.90;;;;;;20906499;28;20098;-78
2020/12/16 01:00:50;;;;;;;144.60;25.10;;;4.40;99.90;;;;;;20923526;28;20029;-79
2020/12/16 01:10:52;;;;;;;65.22;23.25;;;4.40;99.90;;;;;;20923285;28;20033;-78
2020/12/16 01:20:53;;;;;;;56.60;21.48;;;4.40;99.90;;;;;;20884802;28;20127;-78
2020/12/16 01:31:08;;;;;;;43.20;19.48;;;4.40;99.90;;;;;;20904046;28;20040;-79
2020/12/16 01:41:09;;;;;;;55.07;23.27;;;4.50;99.90;;;;;;20900721;28;20033;-78
2020/12/16 01:51:20;;;;;;;48.10;19.98;;;4.50;99.90;;;;;;20899511;28;20056;-78
2020/12/16 02:01:27;;;;;;;44.55;19.33;;;4.50;99.90;;;;;;20914692;28;20514;-78
2020/12/16 02:11:29;;;;;;;37.75;17.80;;;4.60;99.90;;;;;;20913472;28;20055;-78
2020/12/16 02:21:35;;;;;;;45.90;20.52;;;4.70;99.90;;;;;;20911747;28;20064;-79
2020/12/16 02:31:37;;;;;;;;;;;4.60;99.90;;;;;;20912178;28;20052;-78
2020/12/16 02:41:42;;;;;;;182.27;24.42;;;4.50;99.90;;;;;;20894603;28;19909;-79
2020/12/16 02:51:44;;;;;;;78.78;24.00;;;4.40;99.90;;;;;;20893875;28;20041;-78
2020/12/16 03:01:50;;;;;;;52.28;24.63;;;4.30;99.90;;;;;;20893487;28;20028;-78
2020/12/16 03:12:04;;;;;;;53.83;24.80;;;4.30;99.90;;;;;;20909405;28;20399;-80
2020/12/16 03:22:15;;;;;;;52.60;21.67;;;4.40;99.90;;;;;;20899904;28;20068;-78
2020/12/16 03:32:49;;;;;;;50.75;21.58;;;4.50;99.90;;;;;;20892977;28;20039;-79
2020/12/16 03:43:17;;;;;;;46.10;21.77;;;4.60;99.90;;;;;;20890644;28;20124;-79
2020/12/16 03:53:18;;;;;;;126.82;22.70;;;4.30;99.90;;;;;;20888892;28;20044;-77
2020/12/16 04:03:54;;;;;;;41.33;19.60;;;4.20;99.90;;;;;;20888935;28;20106;-79
2020/12/16 04:14:03;;;;;;;47.30;20.75;;;4.20;99.90;;;;;;20888354;28;20025;-78
2020/12/16 04:24:09;;;;;;;53.85;22.42;;;4.10;99.90;;;;;;20889035;28;20061;-78
2020/12/16 04:34:21;;;;;;;44.87;19.93;;;4.10;99.90;;;;;;20888355;28;20029;-78
2020/12/16 04:44:22;;;;;;;43.00;19.77;;;4.10;99.90;;;;;;20898437;28;20856;-79
2020/12/16 04:54:30;;;;;;;79.55;24.15;;;4.10;99.90;;;;;;20918457;28;20032;-78
2020/12/16 05:04:34;;;;;;;290.60;30.90;;;4.10;99.90;;;;;;20918994;28;20029;-77
2020/12/16 05:14:35;;;;;;;92.22;28.08;;;4.00;99.90;;;;;;20900939;28;20033;-78
2020/12/16 05:24:36;;;;;;;90.90;26.73;;;4.10;99.90;;;;;;20918632;28;20029;-77
2020/12/16 05:34:37;;;;;;;;;;;4.10;99.90;;;;;;20918562;28;20029;-76
2020/12/16 05:44:37;;;;;;;91.55;29.98;;;4.10;99.90;;;;;;20925162;28;19923;-79
2020/12/16 05:54:39;;;;;;;91.37;28.53;;;4.20;99.90;;;;;;20916719;28;20052;-76
2020/12/16 06:04:40;;;;;;;;;;;4.30;99.90;;;;;;20914809;28;20104;-76
2020/12/16 06:14:47;;;;;;;99.18;29.23;;;4.40;99.90;;;;;;20914013;28;19954;-79
2020/12/16 06:24:50;;;;;;;90.88;28.80;;;4.40;99.90;;;;;;20911581;28;20040;-76
2020/12/16 06:34:54;;;;;;;344.23;33.30;;;4.40;99.90;;;;;;20912880;28;20033;-79
2020/12/16 06:45:15;;;;;;;306.50;38.78;;;4.30;99.90;;;;;;20916487;28;20037;-79
2020/12/16 06:55:16;;;;;;;94.00;28.42;;;4.30;99.90;;;;;;20916154;28;20039;-80
2020/12/16 07:05:39;;;;;;;103.33;33.10;;;4.30;99.90;;;;;;20865520;28;20033;-80
2020/12/16 07:15:55;;;;;;;84.78;27.52;;;4.30;99.90;;;;;;20833513;28;20037;-80
2020/12/16 07:26:02;;;;;;;90.97;28.02;;;4.30;99.90;;;;;;20834640;28;20037;-80
2020/12/16 07:36:05;;;;;;;77.07;26.40;;;4.30;99.90;;;;;;20832024;28;20400;-80
2020/12/16 07:46:07;;;;;;;81.97;24.08;;;4.30;99.90;;;;;;20832403;28;20041;-80
2020/12/16 07:56:08;;;;;;;66.93;22.33;;;4.40;99.90;;;;;;20816128;28;20120;-78
2020/12/16 08:06:10;;;;;;;68.43;24.97;;;4.40;99.90;;;;;;20844499;28;20056;-80
2020/12/16 08:16:11;;;;;;;70.65;23.65;;;4.50;99.90;;;;;;20901272;28;20043;-80
2020/12/16 08:26:12;;;;;;;69.72;23.58;;;4.30;99.90;;;;;;20886646;28;20086;-82
2020/12/16 08:36:24;;;;;;;68.13;23.52;;;4.30;99.90;;;;;;20890559;28;20044;-80
2020/12/16 08:46:26;;;;;;;69.72;25.20;;;4.30;99.90;;;;;;20893413;28;20399;-81
2020/12/16 08:56:31;;;;;;;80.38;26.45;;;4.40;99.90;;;;;;20892651;28;20043;-80
2020/12/16 09:06:32;;;;;;;72.68;24.58;;;4.60;99.90;;;;;;20910637;28;20075;-81
2020/12/16 09:16:33;;;;;;;;;;;4.70;99.90;;;;;;20894283;28;20039;-82
2020/12/16 09:26:44;;;;;;;51.72;21.63;;;4.80;99.90;;;;;;20910928;28;19944;-79
2020/12/16 09:36:46;;;;;;;42.07;16.57;;;5.00;99.90;;;;;;20908078;28;20083;-81
2020/12/16 09:46:46;;;;;;;55.33;20.88;;;5.00;99.90;;;;;;20918456;28;20055;-78
2020/12/16 09:56:47;;;;;;;29.87;14.03;;;5.30;99.90;;;;;;20937556;28;20037;-79
2020/12/16 10:06:48;;;;;;;32.87;15.30;;;5.50;99.90;;;;;;20936685;28;20056;-80
2020/12/16 10:16:49;;;;;;;33.70;16.50;;;5.50;99.90;;;;;;20889938;28;20063;-80
2020/12/16 10:26:50;;;;;;;29.43;14.90;;;5.70;99.90;;;;;;20888656;28;20086;-79
2020/12/16 10:36:52;;;;;;;27.37;14.97;;;6.20;99.90;;;;;;20964510;28;20033;-79
2020/12/16 10:46:56;;;;;;;26.15;14.10;;;6.90;99.90;;;;;;20934540;28;20041;-80
2020/12/16 10:56:58;;;;;;;24.17;13.60;;;7.20;99.90;;;;;;20931259;28;20032;-79
2020/12/16 11:06:58;;;;;;;20.03;10.87;;;8.80;99.90;;;;;;20934494;28;20127;-79
2020/12/16 11:16:59;;;;;;;18.53;10.40;;;10.40;99.90;;;;;;20888881;28;20140;-79
2020/12/16 11:27:00;;;;;;;17.40;10.52;;;11.60;99.90;;;;;;20851081;28;20029;-80
2020/12/16 11:37:02;;;;;;;17.73;11.03;;;11.20;99.90;;;;;;20853572;28;20045;-80
2020/12/16 11:47:04;;;;;;;16.80;10.00;;;11.90;99.90;;;;;;20860300;28;20041;-81
2020/12/16 11:57:05;;;;;;;;;;;12.20;99.90;;;;;;20846305;28;20048;-80
2020/12/16 12:07:06;;;;;;;24.42;13.23;;;12.00;99.90;;;;;;20845085;28;20388;-80
2020/12/16 12:17:07;;;;;;;21.20;12.83;;;11.10;99.90;;;;;;20850781;28;20129;-80
2020/12/16 12:27:23;;;;;;;22.88;13.93;;;12.10;99.90;;;;;;20798542;28;20508;-80
2020/12/16 12:37:24;;;;;;;27.27;14.73;;;10.60;99.90;;;;;;20890360;28;20052;-80
2020/12/16 12:47:25;;;;;;;30.60;16.03;;;10.30;99.90;;;;;;20913898;28;20029;-80
2020/12/16 12:57:25;;;;;;;32.27;17.13;;;9.10;99.90;;;;;;20937227;28;20483;-80
2020/12/16 13:07:26;;;;;;;28.07;16.03;;;8.90;99.90;;;;;;20941534;28;20052;-81
2020/12/16 13:17:27;;;;;;;27.90;15.67;;;9.30;99.90;;;;;;20961350;28;20020;-81
2020/12/16 13:27:28;;;;;;;31.80;16.50;;;9.60;99.90;;;;;;20923759;28;20029;-80
2020/12/16 13:37:29;;;;;;;34.30;17.17;;;9.20;99.90;;;;;;20937227;28;20033;-80
2020/12/16 13:47:30;;;;;;;32.43;18.00;;;8.30;99.90;;;;;;20935565;28;20144;-79
2020/12/16 13:57:30;;;;;;;47.97;20.37;;;7.60;99.90;;;;;;20954661;28;20048;-80
2020/12/16 14:07:31;;;;;;;37.50;19.80;;;7.20;99.90;;;;;;20976726;28;20033;-80
2020/12/16 14:17:32;;;;;;;40.03;20.60;;;7.10;99.90;;;;;;20953691;28;20098;-81
2020/12/16 14:27:33;;;;;;;42.33;21.87;;;6.90;99.90;;;;;;20948308;28;20032;-80
2020/12/16 14:37:34;;;;;;;45.17;23.13;;;6.60;99.90;;;;;;20947090;28;20032;-80
2020/12/16 14:47:36;;;;;;;42.47;18.27;;;6.60;99.90;;;;;;20924967;28;20056;-81
2020/12/16 14:57:39;;;;;;;55.92;26.38;;;6.40;99.90;;;;;;20945895;28;20021;-80
2020/12/16 15:07:41;;;;;;;71.70;37.28;;;6.30;99.90;;;;;;20953836;28;20033;-80
2020/12/16 15:17:43;;;;;;;59.53;25.88;;;6.20;99.90;;;;;;20942603;28;20063;-81
2020/12/16 15:27:44;;;;;;;90.43;43.97;;;6.20;99.90;;;;;;20935966;28;20040;-81
2020/12/16 15:37:47;;;;;;;65.03;29.77;;;6.20;99.90;;;;;;20937955;28;20483;-80
2020/12/16 15:47:48;;;;;;;64.22;28.70;;;6.10;99.90;;;;;;20889839;28;20068;-80
2020/12/16 15:57:49;;;;;;;57.90;26.33;;;6.10;99.90;;;;;;20879689;28;20049;-80
2020/12/16 16:07:49;;;;;;;50.53;24.07;;;6.00;99.90;;;;;;20890043;28;20075;-79
2020/12/16 16:17:50;;;;;;;52.27;24.93;;;6.20;99.90;;;;;;20875106;28;20033;-78
2020/12/16 16:27:51;;;;;;;50.60;24.10;;;6.10;99.90;;;;;;20846301;28;20069;-79
2020/12/16 16:37:52;;;;;;;54.47;25.67;;;5.90;99.90;;;;;;20839002;28;20056;-80
2020/12/16 16:47:53;;;;;;;65.37;28.67;;;5.80;99.90;;;;;;20868751;28;20038;-79
2020/12/16 16:57:54;;;;;;;71.80;27.43;;;5.60;99.90;;;;;;20868521;28;20112;-80
2020/12/16 17:07:54;;;;;;;50.80;24.53;;;5.60;99.90;;;;;;20861296;28;20029;-79
2020/12/16 17:17:56;;;;;;;75.33;30.60;;;5.60;99.90;;;;;;20823823;28;20037;-79
2020/12/16 17:27:56;;;;;;;61.97;28.43;;;5.60;99.90;;;;;;20855580;28;20034;-79
2020/12/16 17:37:57;;;;;;;59.07;27.00;;;5.60;99.90;;;;;;20860951;28;20030;-79
2020/12/16 17:47:58;;;;;;;63.50;26.63;;;5.60;99.90;;;;;;20881596;28;20038;-78
2020/12/16 17:57:59;;;;;;;71.27;26.33;;;5.70;99.90;;;;;;20876395;28;20048;-80
2020/12/16 18:08:00;;;;;;;63.10;26.83;;;5.60;99.90;;;;;;20875688;28;20036;-80
2020/12/16 18:18:01;;;;;;;65.55;27.90;;;5.50;99.90;;;;;;20849697;28;20084;-79
2020/12/16 18:28:02;;;;;;;70.10;27.83;;;5.50;99.90;;;;;;20835727;28;20033;-79
2020/12/16 18:38:03;;;;;;;65.87;27.37;;;5.50;99.90;;;;;;20849485;28;20041;-79
2020/12/16 18:48:06;;;;;;;;;;;5.60;99.90;;;;;;20851434;28;20095;-79
2020/12/16 18:58:07;;;;;;;63.17;25.73;;;5.60;99.90;;;;;;20848182;28;19908;-79
2020/12/16 19:08:08;;;;;;;58.63;25.63;;;5.50;99.90;;;;;;20850401;28;20032;-80
2020/12/16 19:18:09;;;;;;;54.53;24.90;;;5.50;99.90;;;;;;20819511;28;20037;-79
2020/12/16 19:28:10;;;;;;;51.77;22.43;;;5.40;99.90;;;;;;20855659;28;20463;-79
2020/12/16 19:38:11;;;;;;;51.80;22.90;;;5.40;99.90;;;;;;20872624;28;20051;-80
2020/12/16 19:48:12;;;;;;;60.10;25.73;;;5.40;99.90;;;;;;20892374;28;20577;-78
2020/12/16 19:58:13;;;;;;;62.92;25.30;;;5.30;99.90;;;;;;20913491;28;20052;-80
2020/12/16 20:08:14;;;;;;;54.97;24.30;;;5.40;99.90;;;;;;20883273;28;20048;-80
2020/12/16 20:18:15;;;;;;;61.30;23.83;;;5.30;99.90;;;;;;20963440;28;20033;-79
2020/12/16 20:28:16;;;;;;;63.40;25.13;;;5.30;99.90;;;;;;20952042;28;20029;-80
2020/12/16 20:38:17;;;;;;;65.07;25.83;;;5.20;99.90;;;;;;20944818;28;20058;-80
2020/12/16 20:48:18;;;;;;;63.67;25.57;;;5.30;99.90;;;;;;20929888;28;20029;-80
2020/12/16 20:58:18;;;;;;;58.30;22.27;;;5.30;99.90;;;;;;20847239;28;20033;-78
2020/12/16 21:08:19;;;;;;;53.63;21.63;;;5.30;99.90;;;;;;20856695;28;20112;-80
2020/12/16 21:18:20;;;;;;;58.70;23.33;;;5.30;99.90;;;;;;20842697;28;20037;-80
2020/12/16 21:28:21;;;;;;;57.17;22.63;;;5.30;99.90;;;;;;20864919;28;20494;-79
2020/12/16 21:38:22;;;;;;;54.83;19.37;;;5.20;99.90;;;;;;20897349;28;20013;-79
2020/12/16 21:48:23;;;;;;;46.67;19.20;;;5.20;99.90;;;;;;20877642;28;20033;-79
2020/12/16 21:58:24;;;;;;;47.97;20.93;;;5.30;99.90;;;;;;20819474;28;20550;-79
2020/12/16 22:08:25;;;;;;;41.33;15.43;;;5.40;99.90;;;;;;20841441;28;20033;-79
2020/12/16 22:18:25;;;;;;;37.23;16.40;;;5.10;99.90;;;;;;20854182;28;20032;-81
2020/12/16 22:28:26;;;;;;;45.17;16.73;;;5.00;99.90;;;;;;20886622;28;20039;-79
2020/12/16 22:38:27;;;;;;;57.80;17.97;;;4.90;99.90;;;;;;20910045;28;20036;-78
2020/12/16 22:48:28;;;;;;;50.50;17.00;;;4.80;99.90;;;;;;20880573;28;20037;-79
2020/12/16 22:58:29;;;;;;;47.53;18.60;;;4.80;99.90;;;;;;20836147;28;20065;-78
2020/12/16 23:08:31;;;;;;;68.50;19.70;;;4.80;99.90;;;;;;20899877;28;20040;-78
2020/12/16 23:18:32;;;;;;;75.05;21.98;;;4.80;99.90;;;;;;20854688;28;20036;-78
2020/12/16 23:28:33;;;;;;;60.87;19.60;;;4.80;99.90;;;;;;20910532;28;20488;-78
2020/12/16 23:38:34;;;;;;;75.72;21.90;;;4.80;99.90;;;;;;20910026;28;20350;-78
2020/12/16 23:48:35;;;;;;;74.73;22.40;;;4.80;99.90;;;;;;20890900;28;20068;-78
2020/12/16 23:58:35;;;;;;;58.47;19.20;;;4.80;99.90;;;;;;20890583;28;20098;-79
